sensor_id;sensor_type;location;lat;lon;timestamp;P1;durP1;ratioP1;P2;durP2;ratioP2
14736;SDS011;7459;53.590;10.062;2023-06-14T00:01:46;4.75;;;1.63;;
14736;SDS011;7459;53.590;10.062;2023-06-14T00:04:12;4.55;;;1.20;;
14736;SDS011;7459;53.590;10.062;2023-06-14T00:06:38;4.33;;;1.40;;
14736;SDS011;7459;53.590;10.062;2023-06-14T00:09:04;4.65;;;1.50;;
14736;SDS011;7459;53.590;10.062;2023-06-14T00:11:33;6.43;;;1.50;;
14736;SDS011;7459;53.590;10.062;2023-06-14T00:13:59;5.28;;;1.90;;
14736;SDS011;7459;53.590;10.062;2023-06-14T00:16:24;4.63;;;1.77;;
14736;SDS011;7459;53.590;10.062;2023-06-14T00:18:50;5.20;;;1.40;;
14736;SDS011;7459;53.590;10.062;2023-06-14T00:21:16;7.00;;;1.77;;
14736;SDS011;7459;53.590;10.062;2023-06-14T00:23:42;7.05;;;1.65;;
14736;SDS011;7459;53.590;10.062;2023-06-14T00:26:08;6.50;;;1.70;;
14736;SDS011;7459;53.590;10.062;2023-06-14T00:28:34;4.80;;;1.53;;
14736;SDS011;7459;53.590;10.062;2023-06-14T00:31:00;5.93;;;1.47;;
14736;SDS011;7459;53.590;10.062;2023-06-14T00:33:25;5.73;;;1.47;;
14736;SDS011;7459;53.590;10.062;2023-06-14T00:35:51;4.83;;;1.50;;
14736;SDS011;7459;53.590;10.062;2023-06-14T00:38:18;4.60;;;1.80;;
14736;SDS011;7459;53.590;10.062;2023-06-14T00:40:45;4.88;;;1.75;;
14736;SDS011;7459;53.590;10.062;2023-06-14T00:43:11;5.33;;;1.60;;
14736;SDS011;7459;53.590;10.062;2023-06-14T00:45:37;7.00;;;2.47;;
14736;SDS011;7459;53.590;10.062;2023-06-14T00:48:03;7.13;;;1.70;;
14736;SDS011;7459;53.590;10.062;2023-06-14T00:50:31;6.18;;;1.63;;
14736;SDS011;7459;53.590;10.062;2023-06-14T00:52:58;6.90;;;1.50;;
14736;SDS011;7459;53.590;10.062;2023-06-14T00:55:25;10.30;;;2.70;;
14736;SDS011;7459;53.590;10.062;2023-06-14T00:57:53;4.65;;;1.48;;
14736;SDS011;7459;53.590;10.062;2023-06-14T01:00:20;4.90;;;1.50;;
14736;SDS011;7459;53.590;10.062;2023-06-14T01:02:46;6.55;;;2.15;;
14736;SDS011;7459;53.590;10.062;2023-06-14T01:05:12;7.22;;;2.10;;
14736;SDS011;7459;53.590;10.062;2023-06-14T01:10:53;5.47;;;1.73;;
14736;SDS011;7459;53.590;10.062;2023-06-14T01:13:36;4.93;;;1.80;;
14736;SDS011;7459;53.590;10.062;2023-06-14T01:16:05;9.55;;;1.63;;
14736;SDS011;7459;53.590;10.062;2023-06-14T01:18:32;4.15;;;1.40;;
14736;SDS011;7459;53.590;10.062;2023-06-14T01:20:59;7.75;;;1.92;;
14736;SDS011;7459;53.590;10.062;2023-06-14T01:23:30;4.28;;;1.45;;
14736;SDS011;7459;53.590;10.062;2023-06-14T01:25:58;4.90;;;1.43;;
14736;SDS011;7459;53.590;10.062;2023-06-14T01:28:25;9.18;;;2.15;;
14736;SDS011;7459;53.590;10.062;2023-06-14T01:30:57;7.70;;;1.45;;
14736;SDS011;7459;53.590;10.062;2023-06-14T01:33:29;5.00;;;1.60;;
14736;SDS011;7459;53.590;10.062;2023-06-14T01:35:56;5.43;;;1.80;;
14736;SDS011;7459;53.590;10.062;2023-06-14T01:38:23;5.67;;;1.73;;
14736;SDS011;7459;53.590;10.062;2023-06-14T01:40:51;6.93;;;1.73;;
14736;SDS011;7459;53.590;10.062;2023-06-14T01:43:20;5.32;;;1.88;;
14736;SDS011;7459;53.590;10.062;2023-06-14T01:45:47;6.90;;;1.65;;
14736;SDS011;7459;53.590;10.062;2023-06-14T01:48:15;8.32;;;1.63;;
14736;SDS011;7459;53.590;10.062;2023-06-14T01:50:41;4.80;;;1.47;;
14736;SDS011;7459;53.590;10.062;2023-06-14T01:53:07;5.53;;;1.90;;
14736;SDS011;7459;53.590;10.062;2023-06-14T01:55:34;5.03;;;1.45;;
14736;SDS011;7459;53.590;10.062;2023-06-14T01:58:02;6.93;;;1.63;;
14736;SDS011;7459;53.590;10.062;2023-06-14T02:00:29;7.05;;;1.60;;
14736;SDS011;7459;53.590;10.062;2023-06-14T02:02:55;5.35;;;1.70;;
14736;SDS011;7459;53.590;10.062;2023-06-14T02:07:56;5.47;;;1.48;;
14736;SDS011;7459;53.590;10.062;2023-06-14T02:10:22;4.65;;;1.73;;
14736;SDS011;7459;53.590;10.062;2023-06-14T02:12:48;6.03;;;2.03;;
14736;SDS011;7459;53.590;10.062;2023-06-14T02:15:13;4.32;;;1.50;;
14736;SDS011;7459;53.590;10.062;2023-06-14T02:17:44;5.38;;;1.38;;
14736;SDS011;7459;53.590;10.062;2023-06-14T02:20:14;5.87;;;1.40;;
14736;SDS011;7459;53.590;10.062;2023-06-14T02:22:40;8.90;;;1.55;;
14736;SDS011;7459;53.590;10.062;2023-06-14T02:25:06;6.93;;;1.75;;
14736;SDS011;7459;53.590;10.062;2023-06-14T02:27:33;4.95;;;1.65;;
14736;SDS011;7459;53.590;10.062;2023-06-14T02:29:59;7.05;;;1.90;;
14736;SDS011;7459;53.590;10.062;2023-06-14T02:32:25;5.40;;;1.73;;
14736;SDS011;7459;53.590;10.062;2023-06-14T02:34:52;6.63;;;1.70;;
14736;SDS011;7459;53.590;10.062;2023-06-14T02:37:18;5.40;;;2.15;;
14736;SDS011;7459;53.590;10.062;2023-06-14T02:39:44;4.68;;;1.73;;
14736;SDS011;7459;53.590;10.062;2023-06-14T02:42:10;6.60;;;1.73;;
14736;SDS011;7459;53.590;10.062;2023-06-14T02:44:36;5.97;;;1.80;;
14736;SDS011;7459;53.590;10.062;2023-06-14T02:47:02;6.97;;;1.73;;
14736;SDS011;7459;53.590;10.062;2023-06-14T02:49:28;5.13;;;2.08;;
14736;SDS011;7459;53.590;10.062;2023-06-14T02:51:54;6.25;;;1.90;;
14736;SDS011;7459;53.590;10.062;2023-06-14T02:54:20;6.07;;;1.87;;
14736;SDS011;7459;53.590;10.062;2023-06-14T02:56:46;6.47;;;1.63;;
14736;SDS011;7459;53.590;10.062;2023-06-14T02:59:11;5.33;;;1.70;;
14736;SDS011;7459;53.590;10.062;2023-06-14T03:01:38;6.40;;;2.10;;
14736;SDS011;7459;53.590;10.062;2023-06-14T03:04:06;6.15;;;1.70;;
14736;SDS011;7459;53.590;10.062;2023-06-14T03:06:33;5.38;;;1.73;;
14736;SDS011;7459;53.590;10.062;2023-06-14T03:08:59;6.27;;;2.23;;
14736;SDS011;7459;53.590;10.062;2023-06-14T03:11:34;10.02;;;1.70;;
14736;SDS011;7459;53.590;10.062;2023-06-14T03:14:00;8.43;;;2.33;;
14736;SDS011;7459;53.590;10.062;2023-06-14T03:16:28;6.13;;;1.65;;
14736;SDS011;7459;53.590;10.062;2023-06-14T03:18:55;4.38;;;1.55;;
14736;SDS011;7459;53.590;10.062;2023-06-14T03:21:21;6.43;;;1.93;;
14736;SDS011;7459;53.590;10.062;2023-06-14T03:23:47;6.45;;;1.73;;
14736;SDS011;7459;53.590;10.062;2023-06-14T03:26:14;6.55;;;2.50;;
14736;SDS011;7459;53.590;10.062;2023-06-14T03:28:42;5.68;;;1.92;;
14736;SDS011;7459;53.590;10.062;2023-06-14T03:31:10;4.57;;;2.00;;
14736;SDS011;7459;53.590;10.062;2023-06-14T03:33:36;5.90;;;1.93;;
14736;SDS011;7459;53.590;10.062;2023-06-14T03:36:02;6.95;;;1.85;;
14736;SDS011;7459;53.590;10.062;2023-06-14T03:38:28;7.22;;;2.30;;
14736;SDS011;7459;53.590;10.062;2023-06-14T03:40:54;5.53;;;2.40;;
14736;SDS011;7459;53.590;10.062;2023-06-14T03:43:20;6.03;;;2.28;;
14736;SDS011;7459;53.590;10.062;2023-06-14T03:45:45;7.03;;;2.20;;
14736;SDS011;7459;53.590;10.062;2023-06-14T03:48:11;10.83;;;2.27;;
14736;SDS011;7459;53.590;10.062;2023-06-14T03:50:37;5.63;;;2.25;;
14736;SDS011;7459;53.590;10.062;2023-06-14T03:53:05;9.13;;;1.90;;
14736;SDS011;7459;53.590;10.062;2023-06-14T03:55:31;9.30;;;1.80;;
14736;SDS011;7459;53.590;10.062;2023-06-14T03:57:58;5.82;;;1.85;;
14736;SDS011;7459;53.590;10.062;2023-06-14T04:00:24;6.43;;;2.20;;
14736;SDS011;7459;53.590;10.062;2023-06-14T04:02:50;5.20;;;1.87;;
14736;SDS011;7459;53.590;10.062;2023-06-14T04:05:15;4.80;;;2.30;;
14736;SDS011;7459;53.590;10.062;2023-06-14T04:07:44;10.70;;;2.55;;
14736;SDS011;7459;53.590;10.062;2023-06-14T04:10:11;4.82;;;1.92;;
14736;SDS011;7459;53.590;10.062;2023-06-14T04:12:38;8.47;;;2.40;;
14736;SDS011;7459;53.590;10.062;2023-06-14T04:15:05;6.97;;;1.85;;
14736;SDS011;7459;53.590;10.062;2023-06-14T04:17:31;7.60;;;1.65;;
14736;SDS011;7459;53.590;10.062;2023-06-14T04:19:58;8.73;;;2.25;;
14736;SDS011;7459;53.590;10.062;2023-06-14T04:22:25;7.10;;;2.20;;
14736;SDS011;7459;53.590;10.062;2023-06-14T04:24:53;8.23;;;1.80;;
14736;SDS011;7459;53.590;10.062;2023-06-14T04:27:22;8.27;;;2.00;;
14736;SDS011;7459;53.590;10.062;2023-06-14T04:29:53;5.35;;;1.58;;
14736;SDS011;7459;53.590;10.062;2023-06-14T04:32:24;10.23;;;2.97;;
14736;SDS011;7459;53.590;10.062;2023-06-14T04:34:54;11.60;;;4.30;;
14736;SDS011;7459;53.590;10.062;2023-06-14T04:37:21;11.53;;;4.93;;
14736;SDS011;7459;53.590;10.062;2023-06-14T04:39:50;9.60;;;3.75;;
14736;SDS011;7459;53.590;10.062;2023-06-14T04:42:16;7.75;;;2.88;;
14736;SDS011;7459;53.590;10.062;2023-06-14T04:44:45;12.32;;;3.63;;
14736;SDS011;7459;53.590;10.062;2023-06-14T04:47:12;10.07;;;3.10;;
14736;SDS011;7459;53.590;10.062;2023-06-14T04:49:39;8.83;;;3.07;;
14736;SDS011;7459;53.590;10.062;2023-06-14T04:52:06;8.40;;;2.88;;
14736;SDS011;7459;53.590;10.062;2023-06-14T04:54:32;10.10;;;3.10;;
14736;SDS011;7459;53.590;10.062;2023-06-14T04:56:59;5.30;;;2.25;;
14736;SDS011;7459;53.590;10.062;2023-06-14T04:59:24;6.10;;;2.33;;
14736;SDS011;7459;53.590;10.062;2023-06-14T05:01:50;8.48;;;2.30;;
14736;SDS011;7459;53.590;10.062;2023-06-14T05:04:16;7.70;;;2.50;;
14736;SDS011;7459;53.590;10.062;2023-06-14T05:06:43;9.32;;;2.42;;
14736;SDS011;7459;53.590;10.062;2023-06-14T05:09:15;5.40;;;1.90;;
14736;SDS011;7459;53.590;10.062;2023-06-14T05:11:42;4.70;;;1.90;;
14736;SDS011;7459;53.590;10.062;2023-06-14T05:14:09;5.45;;;1.80;;
14736;SDS011;7459;53.590;10.062;2023-06-14T05:16:36;8.13;;;2.42;;
14736;SDS011;7459;53.590;10.062;2023-06-14T05:19:02;6.87;;;1.80;;
14736;SDS011;7459;53.590;10.062;2023-06-14T05:21:29;8.70;;;2.10;;
14736;SDS011;7459;53.590;10.062;2023-06-14T05:23:55;6.75;;;2.17;;
14736;SDS011;7459;53.590;10.062;2023-06-14T05:26:21;6.43;;;2.03;;
14736;SDS011;7459;53.590;10.062;2023-06-14T05:28:50;10.90;;;2.83;;
14736;SDS011;7459;53.590;10.062;2023-06-14T05:31:17;6.28;;;2.35;;
14736;SDS011;7459;53.590;10.062;2023-06-14T05:33:43;8.18;;;1.73;;
14736;SDS011;7459;53.590;10.062;2023-06-14T05:36:08;9.40;;;3.17;;
14736;SDS011;7459;53.590;10.062;2023-06-14T05:38:34;24.95;;;13.18;;
14736;SDS011;7459;53.590;10.062;2023-06-14T05:41:00;22.73;;;9.73;;
14736;SDS011;7459;53.590;10.062;2023-06-14T05:43:26;20.17;;;7.75;;
14736;SDS011;7459;53.590;10.062;2023-06-14T05:45:51;10.47;;;4.33;;
14736;SDS011;7459;53.590;10.062;2023-06-14T05:48:17;13.60;;;3.40;;
14736;SDS011;7459;53.590;10.062;2023-06-14T05:50:43;13.00;;;2.97;;
14736;SDS011;7459;53.590;10.062;2023-06-14T05:53:08;7.75;;;2.70;;
14736;SDS011;7459;53.590;10.062;2023-06-14T05:55:34;7.57;;;2.72;;
14736;SDS011;7459;53.590;10.062;2023-06-14T05:58:00;10.47;;;2.10;;
14736;SDS011;7459;53.590;10.062;2023-06-14T06:00:26;8.52;;;2.10;;
14736;SDS011;7459;53.590;10.062;2023-06-14T06:02:52;9.27;;;2.25;;
14736;SDS011;7459;53.590;10.062;2023-06-14T06:05:18;6.03;;;2.10;;
14736;SDS011;7459;53.590;10.062;2023-06-14T06:07:44;7.28;;;3.10;;
14736;SDS011;7459;53.590;10.062;2023-06-14T06:10:10;12.85;;;3.55;;
14736;SDS011;7459;53.590;10.062;2023-06-14T06:12:36;10.60;;;3.97;;
14736;SDS011;7459;53.590;10.062;2023-06-14T06:15:02;9.13;;;3.13;;
14736;SDS011;7459;53.590;10.062;2023-06-14T06:17:29;6.63;;;2.17;;
14736;SDS011;7459;53.590;10.062;2023-06-14T06:19:55;8.75;;;2.40;;
14736;SDS011;7459;53.590;10.062;2023-06-14T06:22:20;8.00;;;1.83;;
14736;SDS011;7459;53.590;10.062;2023-06-14T06:24:46;11.93;;;1.98;;
14736;SDS011;7459;53.590;10.062;2023-06-14T06:27:13;4.53;;;1.47;;
14736;SDS011;7459;53.590;10.062;2023-06-14T06:29:39;8.25;;;2.75;;
14736;SDS011;7459;53.590;10.062;2023-06-14T06:32:07;7.43;;;1.77;;
14736;SDS011;7459;53.590;10.062;2023-06-14T06:34:33;6.17;;;1.63;;
14736;SDS011;7459;53.590;10.062;2023-06-14T06:36:58;6.63;;;1.98;;
14736;SDS011;7459;53.590;10.062;2023-06-14T06:39:25;8.63;;;2.20;;
14736;SDS011;7459;53.590;10.062;2023-06-14T06:41:51;5.40;;;1.80;;
14736;SDS011;7459;53.590;10.062;2023-06-14T06:44:17;5.63;;;1.85;;
14736;SDS011;7459;53.590;10.062;2023-06-14T06:46:43;7.57;;;1.73;;
14736;SDS011;7459;53.590;10.062;2023-06-14T06:49:09;6.88;;;1.80;;
14736;SDS011;7459;53.590;10.062;2023-06-14T06:51:36;5.13;;;1.55;;
14736;SDS011;7459;53.590;10.062;2023-06-14T06:54:06;5.82;;;1.30;;
14736;SDS011;7459;53.590;10.062;2023-06-14T06:56:33;5.68;;;1.42;;
14736;SDS011;7459;53.590;10.062;2023-06-14T06:58:59;10.03;;;1.70;;
14736;SDS011;7459;53.590;10.062;2023-06-14T07:01:25;8.80;;;1.30;;
14736;SDS011;7459;53.590;10.062;2023-06-14T07:03:51;3.95;;;1.40;;
14736;SDS011;7459;53.590;10.062;2023-06-14T07:06:17;5.18;;;1.30;;
14736;SDS011;7459;53.590;10.062;2023-06-14T07:08:44;6.37;;;1.87;;
14736;SDS011;7459;53.590;10.062;2023-06-14T07:11:09;4.10;;;1.40;;
14736;SDS011;7459;53.590;10.062;2023-06-14T07:13:35;5.28;;;1.55;;
14736;SDS011;7459;53.590;10.062;2023-06-14T07:16:01;6.40;;;1.43;;
14736;SDS011;7459;53.590;10.062;2023-06-14T07:18:29;5.38;;;1.33;;
14736;SDS011;7459;53.590;10.062;2023-06-14T07:20:55;5.10;;;1.20;;
14736;SDS011;7459;53.590;10.062;2023-06-14T07:23:22;5.22;;;1.20;;
14736;SDS011;7459;53.590;10.062;2023-06-14T07:25:48;9.97;;;1.60;;
14736;SDS011;7459;53.590;10.062;2023-06-14T07:28:16;5.38;;;1.58;;
14736;SDS011;7459;53.590;10.062;2023-06-14T07:30:42;6.40;;;1.52;;
14736;SDS011;7459;53.590;10.062;2023-06-14T07:33:08;3.97;;;1.23;;
14736;SDS011;7459;53.590;10.062;2023-06-14T07:35:35;6.77;;;1.40;;
14736;SDS011;7459;53.590;10.062;2023-06-14T07:38:00;4.90;;;1.42;;
14736;SDS011;7459;53.590;10.062;2023-06-14T07:40:26;3.77;;;1.00;;
14736;SDS011;7459;53.590;10.062;2023-06-14T07:42:52;3.97;;;1.50;;
14736;SDS011;7459;53.590;10.062;2023-06-14T07:45:19;4.72;;;1.40;;
14736;SDS011;7459;53.590;10.062;2023-06-14T07:47:45;11.40;;;1.57;;
14736;SDS011;7459;53.590;10.062;2023-06-14T07:50:11;11.13;;;1.45;;
14736;SDS011;7459;53.590;10.062;2023-06-14T07:52:37;6.72;;;1.45;;
14736;SDS011;7459;53.590;10.062;2023-06-14T07:55:03;4.27;;;1.67;;
14736;SDS011;7459;53.590;10.062;2023-06-14T07:57:30;6.80;;;1.33;;
14736;SDS011;7459;53.590;10.062;2023-06-14T07:59:56;5.97;;;1.23;;
14736;SDS011;7459;53.590;10.062;2023-06-14T08:02:22;3.70;;;1.53;;
14736;SDS011;7459;53.590;10.062;2023-06-14T08:04:47;3.58;;;1.30;;
14736;SDS011;7459;53.590;10.062;2023-06-14T08:07:13;4.50;;;1.43;;
14736;SDS011;7459;53.590;10.062;2023-06-14T08:09:39;5.18;;;1.40;;
14736;SDS011;7459;53.590;10.062;2023-06-14T08:12:05;6.63;;;1.70;;
14736;SDS011;7459;53.590;10.062;2023-06-14T08:14:34;6.20;;;1.80;;
14736;SDS011;7459;53.590;10.062;2023-06-14T08:17:00;5.80;;;1.43;;
14736;SDS011;7459;53.590;10.062;2023-06-14T08:19:26;8.02;;;1.60;;
14736;SDS011;7459;53.590;10.062;2023-06-14T08:21:51;4.23;;;1.30;;
14736;SDS011;7459;53.590;10.062;2023-06-14T08:24:20;5.22;;;1.60;;
14736;SDS011;7459;53.590;10.062;2023-06-14T08:26:49;6.03;;;1.40;;
14736;SDS011;7459;53.590;10.062;2023-06-14T08:29:15;5.20;;;1.52;;
14736;SDS011;7459;53.590;10.062;2023-06-14T08:31:41;5.83;;;1.60;;
14736;SDS011;7459;53.590;10.062;2023-06-14T08:34:06;6.13;;;1.83;;
14736;SDS011;7459;53.590;10.062;2023-06-14T08:36:32;10.80;;;2.23;;
14736;SDS011;7459;53.590;10.062;2023-06-14T08:38:58;5.78;;;1.80;;
14736;SDS011;7459;53.590;10.062;2023-06-14T08:41:24;5.63;;;2.00;;
14736;SDS011;7459;53.590;10.062;2023-06-14T08:43:50;4.38;;;1.40;;
14736;SDS011;7459;53.590;10.062;2023-06-14T08:46:17;4.70;;;1.40;;
14736;SDS011;7459;53.590;10.062;2023-06-14T08:48:51;5.07;;;1.30;;
14736;SDS011;7459;53.590;10.062;2023-06-14T08:51:18;3.22;;;1.23;;
14736;SDS011;7459;53.590;10.062;2023-06-14T08:53:46;5.90;;;1.60;;
14736;SDS011;7459;53.590;10.062;2023-06-14T08:56:22;5.13;;;1.77;;
14736;SDS011;7459;53.590;10.062;2023-06-14T08:58:52;8.48;;;2.05;;
14736;SDS011;7459;53.590;10.062;2023-06-14T09:01:19;6.13;;;1.63;;
14736;SDS011;7459;53.590;10.062;2023-06-14T09:03:46;6.03;;;1.55;;
14736;SDS011;7459;53.590;10.062;2023-06-14T09:06:13;5.88;;;1.77;;
14736;SDS011;7459;53.590;10.062;2023-06-14T09:08:43;7.28;;;1.83;;
14736;SDS011;7459;53.590;10.062;2023-06-14T09:11:11;4.20;;;1.38;;
14736;SDS011;7459;53.590;10.062;2023-06-14T09:13:38;7.60;;;1.67;;
14736;SDS011;7459;53.590;10.062;2023-06-14T09:16:05;6.28;;;1.73;;
14736;SDS011;7459;53.590;10.062;2023-06-14T09:18:35;12.40;;;1.60;;
14736;SDS011;7459;53.590;10.062;2023-06-14T09:21:19;11.52;;;2.00;;
14736;SDS011;7459;53.590;10.062;2023-06-14T09:23:47;5.97;;;1.70;;
14736;SDS011;7459;53.590;10.062;2023-06-14T09:26:13;10.67;;;1.50;;
14736;SDS011;7459;53.590;10.062;2023-06-14T09:28:48;7.95;;;1.88;;
14736;SDS011;7459;53.590;10.062;2023-06-14T09:31:19;7.32;;;2.08;;
14736;SDS011;7459;53.590;10.062;2023-06-14T09:33:46;4.10;;;1.52;;
14736;SDS011;7459;53.590;10.062;2023-06-14T09:36:17;9.70;;;1.95;;
14736;SDS011;7459;53.590;10.062;2023-06-14T09:38:54;7.57;;;1.57;;
14736;SDS011;7459;53.590;10.062;2023-06-14T09:41:31;6.47;;;1.95;;
14736;SDS011;7459;53.590;10.062;2023-06-14T09:44:06;7.97;;;2.00;;
14736;SDS011;7459;53.590;10.062;2023-06-14T09:46:33;6.35;;;1.40;;
14736;SDS011;7459;53.590;10.062;2023-06-14T09:49:00;5.35;;;2.10;;
14736;SDS011;7459;53.590;10.062;2023-06-14T09:51:27;9.83;;;1.57;;
14736;SDS011;7459;53.590;10.062;2023-06-14T09:53:55;5.53;;;1.73;;
14736;SDS011;7459;53.590;10.062;2023-06-14T09:56:29;4.55;;;1.67;;
14736;SDS011;7459;53.590;10.062;2023-06-14T09:58:59;6.55;;;1.85;;
14736;SDS011;7459;53.590;10.062;2023-06-14T10:01:30;9.35;;;2.13;;
14736;SDS011;7459;53.590;10.062;2023-06-14T10:04:05;7.23;;;1.93;;
14736;SDS011;7459;53.590;10.062;2023-06-14T10:06:32;7.53;;;2.00;;
14736;SDS011;7459;53.590;10.062;2023-06-14T10:09:04;8.75;;;2.08;;
14736;SDS011;7459;53.590;10.062;2023-06-14T10:11:32;5.97;;;2.20;;
14736;SDS011;7459;53.590;10.062;2023-06-14T10:14:01;7.28;;;1.90;;
14736;SDS011;7459;53.590;10.062;2023-06-14T10:16:34;5.43;;;1.80;;
14736;SDS011;7459;53.590;10.062;2023-06-14T10:19:14;5.10;;;1.83;;
14736;SDS011;7459;53.590;10.062;2023-06-14T10:24:55;11.43;;;2.00;;
14736;SDS011;7459;53.590;10.062;2023-06-14T10:27:21;7.07;;;2.03;;
14736;SDS011;7459;53.590;10.062;2023-06-14T10:32:22;5.38;;;1.95;;
14736;SDS011;7459;53.590;10.062;2023-06-14T10:34:53;9.70;;;2.17;;
14736;SDS011;7459;53.590;10.062;2023-06-14T10:37:29;7.95;;;2.10;;
14736;SDS011;7459;53.590;10.062;2023-06-14T10:39:55;9.43;;;2.50;;
14736;SDS011;7459;53.590;10.062;2023-06-14T10:42:21;9.45;;;2.88;;
14736;SDS011;7459;53.590;10.062;2023-06-14T10:44:50;5.80;;;2.20;;
14736;SDS011;7459;53.590;10.062;2023-06-14T10:47:33;6.70;;;1.90;;
14736;SDS011;7459;53.590;10.062;2023-06-14T10:50:06;6.65;;;1.80;;
14736;SDS011;7459;53.590;10.062;2023-06-14T10:52:37;5.50;;;2.10;;
14736;SDS011;7459;53.590;10.062;2023-06-14T10:55:07;4.85;;;1.73;;
14736;SDS011;7459;53.590;10.062;2023-06-14T10:57:50;5.43;;;2.05;;
14736;SDS011;7459;53.590;10.062;2023-06-14T11:00:28;8.45;;;2.00;;
14736;SDS011;7459;53.590;10.062;2023-06-14T11:05:54;5.00;;;2.03;;
14736;SDS011;7459;53.590;10.062;2023-06-14T11:11:33;4.20;;;2.10;;
14736;SDS011;7459;53.590;10.062;2023-06-14T11:14:01;6.38;;;1.63;;
14736;SDS011;7459;53.590;10.062;2023-06-14T11:16:27;7.97;;;1.92;;
14736;SDS011;7459;53.590;10.062;2023-06-14T11:18:54;5.57;;;1.70;;
14736;SDS011;7459;53.590;10.062;2023-06-14T11:21:20;8.15;;;2.13;;
14736;SDS011;7459;53.590;10.062;2023-06-14T11:23:52;10.75;;;1.95;;
14736;SDS011;7459;53.590;10.062;2023-06-14T11:26:29;8.25;;;2.15;;
14736;SDS011;7459;53.590;10.062;2023-06-14T11:29:00;6.45;;;1.75;;
14736;SDS011;7459;53.590;10.062;2023-06-14T11:31:29;5.53;;;1.97;;
14736;SDS011;7459;53.590;10.062;2023-06-14T11:33:55;6.53;;;2.30;;
14736;SDS011;7459;53.590;10.062;2023-06-14T11:36:28;4.85;;;1.63;;
14736;SDS011;7459;53.590;10.062;2023-06-14T11:39:05;6.88;;;2.20;;
14736;SDS011;7459;53.590;10.062;2023-06-14T11:41:38;6.68;;;2.05;;
14736;SDS011;7459;53.590;10.062;2023-06-14T11:44:09;5.87;;;1.93;;
14736;SDS011;7459;53.590;10.062;2023-06-14T11:46:35;6.93;;;1.70;;
14736;SDS011;7459;53.590;10.062;2023-06-14T11:49:01;4.97;;;2.10;;
14736;SDS011;7459;53.590;10.062;2023-06-14T11:51:30;6.03;;;1.88;;
14736;SDS011;7459;53.590;10.062;2023-06-14T11:53:57;9.63;;;1.77;;
14736;SDS011;7459;53.590;10.062;2023-06-14T11:56:23;4.75;;;1.60;;
14736;SDS011;7459;53.590;10.062;2023-06-14T11:58:50;5.53;;;1.83;;
14736;SDS011;7459;53.590;10.062;2023-06-14T12:01:17;5.68;;;1.92;;
14736;SDS011;7459;53.590;10.062;2023-06-14T12:03:49;7.37;;;2.30;;
14736;SDS011;7459;53.590;10.062;2023-06-14T12:06:15;6.70;;;2.25;;
14736;SDS011;7459;53.590;10.062;2023-06-14T12:08:43;9.65;;;1.80;;
14736;SDS011;7459;53.590;10.062;2023-06-14T12:11:11;7.10;;;1.95;;
14736;SDS011;7459;53.590;10.062;2023-06-14T12:13:38;4.53;;;2.08;;
14736;SDS011;7459;53.590;10.062;2023-06-14T12:16:06;7.93;;;2.10;;
14736;SDS011;7459;53.590;10.062;2023-06-14T12:18:34;6.15;;;2.70;;
14736;SDS011;7459;53.590;10.062;2023-06-14T12:21:05;4.65;;;2.25;;
14736;SDS011;7459;53.590;10.062;2023-06-14T12:26:15;5.25;;;1.58;;
14736;SDS011;7459;53.590;10.062;2023-06-14T12:28:44;6.50;;;2.03;;
14736;SDS011;7459;53.590;10.062;2023-06-14T12:31:11;7.43;;;1.73;;
14736;SDS011;7459;53.590;10.062;2023-06-14T12:33:39;9.80;;;2.35;;
14736;SDS011;7459;53.590;10.062;2023-06-14T12:36:09;10.90;;;2.35;;
14736;SDS011;7459;53.590;10.062;2023-06-14T12:38:35;5.90;;;1.92;;
14736;SDS011;7459;53.590;10.062;2023-06-14T12:41:02;6.90;;;2.00;;
14736;SDS011;7459;53.590;10.062;2023-06-14T12:43:28;4.85;;;2.05;;
14736;SDS011;7459;53.590;10.062;2023-06-14T12:45:54;7.50;;;1.50;;
14736;SDS011;7459;53.590;10.062;2023-06-14T12:48:20;5.87;;;1.80;;
14736;SDS011;7459;53.590;10.062;2023-06-14T12:50:46;8.45;;;2.17;;
14736;SDS011;7459;53.590;10.062;2023-06-14T12:53:13;9.43;;;2.17;;
14736;SDS011;7459;53.590;10.062;2023-06-14T12:55:39;8.70;;;1.60;;
14736;SDS011;7459;53.590;10.062;2023-06-14T12:58:05;7.87;;;1.63;;
14736;SDS011;7459;53.590;10.062;2023-06-14T13:00:30;5.13;;;1.40;;
14736;SDS011;7459;53.590;10.062;2023-06-14T13:02:56;8.20;;;2.30;;
14736;SDS011;7459;53.590;10.062;2023-06-14T13:05:23;8.77;;;2.17;;
14736;SDS011;7459;53.590;10.062;2023-06-14T13:07:48;5.13;;;1.60;;
14736;SDS011;7459;53.590;10.062;2023-06-14T13:10:16;11.80;;;1.75;;
14736;SDS011;7459;53.590;10.062;2023-06-14T13:12:42;7.75;;;2.05;;
14736;SDS011;7459;53.590;10.062;2023-06-14T13:15:07;7.77;;;2.03;;
14736;SDS011;7459;53.590;10.062;2023-06-14T13:17:34;7.78;;;2.28;;
14736;SDS011;7459;53.590;10.062;2023-06-14T13:20:06;5.80;;;1.88;;
14736;SDS011;7459;53.590;10.062;2023-06-14T13:22:36;7.88;;;1.83;;
14736;SDS011;7459;53.590;10.062;2023-06-14T13:25:02;6.07;;;2.20;;
14736;SDS011;7459;53.590;10.062;2023-06-14T13:27:28;6.25;;;1.60;;
14736;SDS011;7459;53.590;10.062;2023-06-14T13:29:54;6.10;;;1.80;;
14736;SDS011;7459;53.590;10.062;2023-06-14T13:32:20;5.83;;;2.00;;
14736;SDS011;7459;53.590;10.062;2023-06-14T13:34:46;6.93;;;1.48;;
14736;SDS011;7459;53.590;10.062;2023-06-14T13:37:12;5.57;;;2.00;;
14736;SDS011;7459;53.590;10.062;2023-06-14T13:39:38;5.67;;;1.43;;
14736;SDS011;7459;53.590;10.062;2023-06-14T13:42:04;6.43;;;1.77;;
14736;SDS011;7459;53.590;10.062;2023-06-14T13:44:30;12.07;;;1.90;;
14736;SDS011;7459;53.590;10.062;2023-06-14T13:46:56;9.53;;;2.13;;
14736;SDS011;7459;53.590;10.062;2023-06-14T13:49:22;8.10;;;2.10;;
14736;SDS011;7459;53.590;10.062;2023-06-14T13:51:47;5.70;;;1.73;;
14736;SDS011;7459;53.590;10.062;2023-06-14T13:54:13;4.67;;;1.87;;
14736;SDS011;7459;53.590;10.062;2023-06-14T13:56:40;7.93;;;1.38;;
14736;SDS011;7459;53.590;10.062;2023-06-14T13:59:06;7.88;;;2.00;;
14736;SDS011;7459;53.590;10.062;2023-06-14T14:01:32;7.80;;;1.70;;
14736;SDS011;7459;53.590;10.062;2023-06-14T14:03:58;5.22;;;1.70;;
14736;SDS011;7459;53.590;10.062;2023-06-14T14:06:25;6.90;;;2.03;;
14736;SDS011;7459;53.590;10.062;2023-06-14T14:08:51;5.65;;;1.50;;
14736;SDS011;7459;53.590;10.062;2023-06-14T14:11:17;7.07;;;1.40;;
14736;SDS011;7459;53.590;10.062;2023-06-14T14:13:43;5.23;;;1.80;;
14736;SDS011;7459;53.590;10.062;2023-06-14T14:16:10;7.05;;;2.00;;
14736;SDS011;7459;53.590;10.062;2023-06-14T14:18:36;7.05;;;2.17;;
14736;SDS011;7459;53.590;10.062;2023-06-14T14:21:02;7.30;;;1.80;;
14736;SDS011;7459;53.590;10.062;2023-06-14T14:23:28;9.87;;;1.70;;
14736;SDS011;7459;53.590;10.062;2023-06-14T14:25:54;5.53;;;1.52;;
14736;SDS011;7459;53.590;10.062;2023-06-14T14:28:19;8.10;;;2.10;;
14736;SDS011;7459;53.590;10.062;2023-06-14T14:30:45;8.32;;;1.63;;
14736;SDS011;7459;53.590;10.062;2023-06-14T14:33:12;5.50;;;1.67;;
14736;SDS011;7459;53.590;10.062;2023-06-14T14:35:44;5.60;;;1.88;;
14736;SDS011;7459;53.590;10.062;2023-06-14T14:38:10;8.95;;;2.38;;
14736;SDS011;7459;53.590;10.062;2023-06-14T14:40:43;7.73;;;2.03;;
14736;SDS011;7459;53.590;10.062;2023-06-14T14:43:09;4.72;;;1.83;;
14736;SDS011;7459;53.590;10.062;2023-06-14T14:45:36;8.90;;;1.90;;
14736;SDS011;7459;53.590;10.062;2023-06-14T14:48:02;6.65;;;1.88;;
14736;SDS011;7459;53.590;10.062;2023-06-14T14:50:28;7.10;;;1.55;;
14736;SDS011;7459;53.590;10.062;2023-06-14T14:52:54;13.13;;;1.80;;
14736;SDS011;7459;53.590;10.062;2023-06-14T14:55:21;9.55;;;1.80;;
14736;SDS011;7459;53.590;10.062;2023-06-14T14:57:46;7.07;;;1.95;;
14736;SDS011;7459;53.590;10.062;2023-06-14T15:00:13;10.43;;;1.70;;
14736;SDS011;7459;53.590;10.062;2023-06-14T15:02:39;9.43;;;1.65;;
14736;SDS011;7459;53.590;10.062;2023-06-14T15:05:05;5.93;;;1.80;;
14736;SDS011;7459;53.590;10.062;2023-06-14T15:07:31;6.47;;;1.88;;